»·PEaware :: JUS326 KLAX-KLAS

JUS326 :: KLAX-KLAS

FLIGHT INFORMATION

Flight Status: Arrived
Operator:
USA Jet
More flights by this operator :: More flights under this callsign
Pilot: Erik S. (3779)
Aircraft: BOEING 737-300
(B733)
More flights by this aircraft type
Origin: KLAX Los Angeles Intl
United States
Destination: KLAS McCarran Intl
United States
More flights between these airports :: More routes between these airports
Route: +ORCKA2 MISEN KEPEC6
File this flight plan on PilotEdge
Remarks:
Altitude:
(Current/Filed)
29,000ft
Speed:
(Current/Filed)
400kts
Departed: 16-Feb-18 05:37 PM
Arrived: 16-Feb-18 06:29 PM
Distance/Time
Traveled:
206nm/0:52
Distance/Time
To Go:
Arrived

Flight Plot

Page will automatically refresh every two minutes.

Flight plan parsing failed; only flown route is shown


Map Options




Map Legend


Flown Route
Filed Route
Departure Airport
Arrival Airport
Navaid (VOR, NDB)
Fix

Horizontal Profiles

Position Reports

Time Latitude Longitude Heading Altitude Ground
Speed
16-Feb-18 17:22 33.935331 -118.382317 279 132ft 0kts
16-Feb-18 17:23 33.935331 -118.382317 279 132ft 0kts
16-Feb-18 17:24 33.935331 -118.382317 279 132ft 0kts
16-Feb-18 17:25 33.935331 -118.382317 279 132ft 0kts
16-Feb-18 17:26 33.935331 -118.382317 279 132ft 0kts
16-Feb-18 17:27 33.935331 -118.382317 279 132ft 0kts
16-Feb-18 17:28 33.935331 -118.382317 279 132ft 0kts
16-Feb-18 17:29 33.935331 -118.382317 279 132ft 0kts
16-Feb-18 17:30 33.935331 -118.382317 279 132ft 0kts
16-Feb-18 17:31 33.935331 -118.382317 279 132ft 0kts
16-Feb-18 17:32 33.935331 -118.382317 279 132ft 0kts
16-Feb-18 17:33 33.935332 -118.382326 279 132ft 0kts
16-Feb-18 17:34 33.935257 -118.381854 291 132ft 0kts
16-Feb-18 17:35 33.934964 -118.381669 4 132ft 0kts
16-Feb-18 17:36 33.934965 -118.381669 4 132ft 0kts
16-Feb-18 17:37 33.936331 -118.382666 325 132ft 0kts
16-Feb-18 17:38 33.936331 -118.382666 325 132ft 0kts
16-Feb-18 17:39 33.936331 -118.382666 325 132ft 0kts
16-Feb-18 17:40 33.936331 -118.382666 325 132ft 0kts
16-Feb-18 17:41 33.936331 -118.382666 325 132ft 0kts
16-Feb-18 17:42 33.936971 -118.382815 356 132ft 14kts
16-Feb-18 17:43 33.937317 -118.383128 268 132ft 0kts
16-Feb-18 17:44 33.936813 -118.388295 263 132ft 97kts
16-Feb-18 17:45 33.931005 -118.445090 262 2523ft 203kts
16-Feb-18 17:46 33.909952 -118.515033 249 4846ft 257kts
16-Feb-18 17:47 33.881217 -118.595602 247 5127ft 258kts
16-Feb-18 17:48 33.848738 -118.662374 204 9317ft 237kts
16-Feb-18 17:49 33.805328 -118.624483 77 12227ft 235kts
16-Feb-18 17:50 33.849871 -118.554750 48 13177ft 322kts
16-Feb-18 17:51 33.912561 -118.467456 48 14831ft 352kts
16-Feb-18 17:52 33.971824 -118.373441 58 15986ft 361kts
16-Feb-18 17:53 34.025245 -118.269662 53 18432ft 373kts
16-Feb-18 17:54 34.084622 -118.165017 53 20581ft 388kts
16-Feb-18 17:55 34.146239 -118.055751 53 22501ft 402kts
16-Feb-18 17:56 34.209691 -117.942933 53 23145ft 408kts
16-Feb-18 17:57 34.273073 -117.830558 53 23145ft 407kts
16-Feb-18 17:58 34.336552 -117.717220 54 23160ft 407kts
16-Feb-18 17:59 34.401352 -117.606784 52 24897ft 413kts
16-Feb-18 18:00 34.467908 -117.495153 52 26932ft 411kts
16-Feb-18 18:01 34.534570 -117.382999 52 28720ft 411kts
16-Feb-18 18:02 34.602928 -117.268092 52 29175ft 438kts
16-Feb-18 18:03 34.676649 -117.143259 52 29208ft 468kts
16-Feb-18 18:04 34.752682 -117.014015 52 29233ft 473kts
16-Feb-18 18:05 34.828525 -116.882230 61 29169ft 484kts
16-Feb-18 18:06 34.831945 -116.721948 101 29237ft 487kts
16-Feb-18 18:07 34.808501 -116.568729 101 29231ft 486kts
16-Feb-18 18:08 34.783648 -116.407395 101 29228ft 486kts
16-Feb-18 18:09 34.809034 -116.255008 45 29239ft 481kts
16-Feb-18 18:10 34.926528 -116.211928 341 28615ft 454kts
16-Feb-18 18:11 35.016470 -116.307537 314 26354ft 434kts
16-Feb-18 18:12 35.111579 -116.394661 347 24398ft 431kts
16-Feb-18 18:13 35.211689 -116.322346 52 24218ft 461kts
16-Feb-18 18:14 35.285595 -116.194168 51 22872ft 448kts
16-Feb-18 18:15 35.352231 -116.077114 51 20633ft 396kts
16-Feb-18 18:16 35.413706 -115.968074 51 18440ft 393kts
16-Feb-18 18:17 35.482459 -115.875315 34 16235ft 353kts
16-Feb-18 18:18 35.555612 -115.802417 36 14024ft 330kts
16-Feb-18 18:19 35.621819 -115.735106 36 13014ft 292kts
16-Feb-18 18:20 35.683737 -115.670016 42 13038ft 294kts
16-Feb-18 18:21 35.740355 -115.597368 42 13037ft 294kts
16-Feb-18 18:22 35.813975 -115.572480 1 13041ft 283kts
16-Feb-18 18:23 35.892628 -115.567997 0 13033ft 283kts
16-Feb-18 18:24 35.969018 -115.553050 38 12550ft 285kts
16-Feb-18 18:25 36.002181 -115.466383 64 11075ft 268kts
16-Feb-18 18:26 36.029116 -115.380707 70 11012ft 270kts
16-Feb-18 18:27 36.024693 -115.286227 92 9250ft 271kts
16-Feb-18 18:28 36.018338 -115.200089 91 9051ft 244kts
16-Feb-18 18:29 36.012886 -115.117536 91 7630ft 238kts
16-Feb-18 18:30 36.008468 -115.037105 91 6222ft 232kts
16-Feb-18 18:31 36.034938 -114.985080 352 6053ft 202kts
16-Feb-18 18:32 36.080706 -115.009682 283 4418ft 179kts
16-Feb-18 18:33 36.073556 -115.065581 270 3228ft 131kts
16-Feb-18 18:34 36.076606 -115.110432 267 2391ft 130kts
16-Feb-18 18:35 36.076378 -115.143111 270 2148ft 48kts
16-Feb-18 18:36 36.077604 -115.146238 67 2148ft 3kts
16-Feb-18 18:37 36.077535 -115.137576 89 2148ft 41kts
16-Feb-18 18:38 36.078286 -115.124566 76 2148ft 29kts

Navigation Log

Ident Type
Flight plan parsing failed, navigation log unavailable